Time;durP1;ratioP1;P1;durP2;ratioP2;P2;SDS_P1;SDS_P2;PMS_P1;PMS_P2;Temp;Humidity;BMP_temperature;BMP_pressure;BME280_temperature;BME280_humidity;BME280_pressure;Samples;Min_cycle;Max_cycle;Signal;HPM_P1;HPM_P2
2022/10/21 00:01:45;;;;;;;29.48;21.30;;;;;;;;;;5030731;28;20042;-75
2022/10/21 00:04:11;;;;;;;27.48;20.90;;;;;;;;;;5023584;28;20041;-75
2022/10/21 00:06:37;;;;;;;26.90;20.90;;;;;;;;;;5030943;28;20047;-75
2022/10/21 00:09:03;;;;;;;36.17;22.88;;;;;;;;;;5029405;28;20103;-75
2022/10/21 00:11:29;;;;;;;31.25;22.00;;;;;;;;;;5029124;28;20120;-75
2022/10/21 00:13:55;;;;;;;31.08;22.77;;;;;;;;;;5025907;28;20042;-75
2022/10/21 00:16:21;;;;;;;29.15;22.27;;;;;;;;;;5026139;28;20060;-75
2022/10/21 00:18:48;;;;;;;28.83;20.08;;;;;;;;;;5027714;28;20045;-75
2022/10/21 00:21:18;;;;;;;27.52;20.60;;;;;;;;;;5029520;28;20057;-75
2022/10/21 00:23:45;;;;;;;30.98;21.55;;;;;;;;;;5028738;28;20029;-75
2022/10/21 00:26:11;;;;;;;29.77;22.73;;;;;;;;;;5030888;28;20049;-75
2022/10/21 00:28:37;;;;;;;28.88;21.90;;;;;;;;;;5025281;28;20088;-75
2022/10/21 00:31:05;;;;;;;26.60;21.17;;;;;;;;;;5020457;28;20041;-75
2022/10/21 00:33:31;;;;;;;29.20;21.20;;;;;;;;;;5027964;28;20124;-75
2022/10/21 00:36:00;;;;;;;29.20;20.88;;;;;;;;;;5026730;28;20479;-75
2022/10/21 00:38:26;;;;;;;28.25;20.58;;;;;;;;;;5028713;28;20037;-75
2022/10/21 00:40:52;;;;;;;34.22;22.27;;;;;;;;;;5030245;28;20041;-75
2022/10/21 00:43:18;;;;;;;32.85;21.20;;;;;;;;;;5027828;28;20045;-75
2022/10/21 00:45:44;;;;;;;29.20;21.50;;;;;;;;;;5022382;28;20156;-75
2022/10/21 00:48:18;;;;;;;37.78;22.30;;;;;;;;;;5032083;28;20056;-75
2022/10/21 00:50:57;;;;;;;27.65;20.17;;;;;;;;;;5047188;28;20484;-75
2022/10/21 00:53:24;;;;;;;29.02;21.02;;;;;;;;;;5023364;28;20497;-75
2022/10/21 00:55:52;;;;;;;25.15;19.83;;;;;;;;;;5030081;28;20067;-75
2022/10/21 00:58:20;;;;;;;23.85;19.88;;;;;;;;;;5022655;28;20049;-75
2022/10/21 01:00:46;;;;;;;28.63;21.00;;;;;;;;;;5020731;28;20061;-74
2022/10/21 01:03:13;;;;;;;33.50;21.33;;;;;;;;;;5024607;28;20051;-75
2022/10/21 01:05:40;;;;;;;29.33;20.65;;;;;;;;;;5021118;28;20045;-75
2022/10/21 01:08:12;;;;;;;28.75;21.50;;;;;;;;;;5023190;28;20042;-75
2022/10/21 01:10:39;;;;;;;29.92;21.55;;;;;;;;;;5019820;28;20049;-75
2022/10/21 01:13:05;;;;;;;25.95;20.70;;;;;;;;;;5020158;28;20037;-75
2022/10/21 01:15:35;;;;;;;28.05;21.40;;;;;;;;;;5021123;28;20386;-75
2022/10/21 01:18:01;;;;;;;29.33;21.98;;;;;;;;;;5021989;28;20053;-75
2022/10/21 01:20:27;;;;;;;32.20;20.80;;;;;;;;;;5019278;28;20040;-75
2022/10/21 01:23:12;;;;;;;31.20;21.95;;;;;;;;;;5020464;28;20132;-75
2022/10/21 01:25:46;;;;;;;24.92;20.80;;;;;;;;;;5022403;28;20532;-75
2022/10/21 01:28:27;;;;;;;27.83;20.73;;;;;;;;;;5021045;28;20033;-75
2022/10/21 01:30:59;;;;;;;26.55;20.67;;;;;;;;;;5019004;28;20455;-75
2022/10/21 01:33:28;;;;;;;29.48;21.02;;;;;;;;;;5021049;28;20478;-75
2022/10/21 01:36:07;;;;;;;28.25;20.80;;;;;;;;;;5025494;28;20041;-75
2022/10/21 01:38:36;;;;;;;31.63;22.17;;;;;;;;;;5025142;28;20051;-75
2022/10/21 01:41:20;;;;;;;34.58;22.20;;;;;;;;;;5023068;28;20107;-75
2022/10/21 01:43:52;;;;;;;29.88;19.83;;;;;;;;;;5024804;28;20069;-75
2022/10/21 01:46:21;;;;;;;30.20;22.23;;;;;;;;;;5022252;28;20049;-75
2022/10/21 01:48:50;;;;;;;25.00;20.70;;;;;;;;;;5025953;28;20584;-75
2022/10/21 01:51:17;;;;;;;26.20;20.77;;;;;;;;;;5026251;28;20049;-75
2022/10/21 01:53:46;;;;;;;25.95;19.42;;;;;;;;;;5019851;28;20053;-75
2022/10/21 01:56:13;;;;;;;31.92;21.55;;;;;;;;;;5024200;28;20444;-75
2022/10/21 01:58:41;;;;;;;27.50;21.67;;;;;;;;;;5027890;28;20068;-75
2022/10/21 02:01:08;;;;;;;29.08;21.65;;;;;;;;;;5021312;28;20091;-75
2022/10/21 02:03:38;;;;;;;26.48;21.42;;;;;;;;;;5025120;28;20045;-75
2022/10/21 02:06:04;;;;;;;30.23;22.60;;;;;;;;;;5024986;28;20048;-75
2022/10/21 02:08:30;;;;;;;31.08;22.52;;;;;;;;;;5021964;28;20037;-75
2022/10/21 02:10:58;;;;;;;32.70;22.05;;;;;;;;;;5018156;28;20068;-75
2022/10/21 02:13:26;;;;;;;33.33;23.92;;;;;;;;;;5019363;28;20048;-75
2022/10/21 02:15:57;;;;;;;30.10;21.42;;;;;;;;;;5022041;28;20057;-75
2022/10/21 02:18:25;;;;;;;29.52;22.05;;;;;;;;;;5020647;28;20041;-75
2022/10/21 02:20:53;;;;;;;31.05;22.65;;;;;;;;;;5021937;28;20054;-75
2022/10/21 02:23:23;;;;;;;27.40;22.20;;;;;;;;;;5018480;28;20103;-75
2022/10/21 02:25:50;;;;;;;28.85;22.10;;;;;;;;;;5020807;28;20099;-75
2022/10/21 02:28:16;;;;;;;26.50;22.23;;;;;;;;;;5019770;28;22335;-75
2022/10/21 02:30:54;;;;;;;30.25;22.75;;;;;;;;;;5022746;28;20064;-75
2022/10/21 02:33:24;;;;;;;27.67;21.38;;;;;;;;;;5022151;28;20943;-75
2022/10/21 02:35:50;;;;;;;34.38;23.23;;;;;;;;;;5024999;28;20050;-75
2022/10/21 02:38:19;;;;;;;26.75;20.63;;;;;;;;;;5022385;28;20049;-75
2022/10/21 02:40:50;;;;;;;26.88;21.40;;;;;;;;;;5026568;28;20049;-75
2022/10/21 02:43:21;;;;;;;27.30;21.25;;;;;;;;;;5021217;28;20041;-75
2022/10/21 02:45:48;;;;;;;30.55;22.95;;;;;;;;;;5026611;28;20045;-75
2022/10/21 02:48:14;;;;;;;32.33;22.42;;;;;;;;;;5027170;28;20398;-75
2022/10/21 02:50:40;;;;;;;30.70;22.08;;;;;;;;;;5025965;28;20053;-75
2022/10/21 02:53:07;;;;;;;28.15;22.00;;;;;;;;;;5026738;28;20095;-75
2022/10/21 02:55:33;;;;;;;29.70;22.67;;;;;;;;;;5026922;28;20067;-75
2022/10/21 02:58:02;;;;;;;28.52;21.83;;;;;;;;;;5023466;28;20033;-75
2022/10/21 03:00:28;;;;;;;32.30;22.23;;;;;;;;;;5017271;28;20057;-75
2022/10/21 03:02:54;;;;;;;31.63;23.15;;;;;;;;;;5023046;28;20104;-75
2022/10/21 03:05:20;;;;;;;30.70;22.42;;;;;;;;;;5020036;28;20081;-75
2022/10/21 03:07:46;;;;;;;29.13;21.73;;;;;;;;;;5021327;28;20057;-75
2022/10/21 03:10:12;;;;;;;34.28;21.88;;;;;;;;;;5019719;28;20049;-75
2022/10/21 03:12:41;;;;;;;29.52;22.30;;;;;;;;;;5016377;28;20053;-75
2022/10/21 03:15:07;;;;;;;28.70;21.63;;;;;;;;;;5019399;28;20088;-75
2022/10/21 03:17:36;;;;;;;31.38;22.30;;;;;;;;;;5028574;28;20129;-75
2022/10/21 03:20:03;;;;;;;30.10;20.67;;;;;;;;;;5024010;28;20433;-75
2022/10/21 03:22:29;;;;;;;26.67;21.27;;;;;;;;;;5026812;28;20176;-75
2022/10/21 03:24:55;;;;;;;30.10;21.92;;;;;;;;;;5028875;28;20120;-75
2022/10/21 03:27:21;;;;;;;33.08;21.70;;;;;;;;;;5024842;28;20192;-75
2022/10/21 03:29:47;;;;;;;26.25;21.08;;;;;;;;;;5026858;28;20479;-75
2022/10/21 03:32:13;;;;;;;27.35;22.20;;;;;;;;;;5022452;28;20118;-75
2022/10/21 03:34:39;;;;;;;28.77;21.42;;;;;;;;;;5024752;28;20046;-75
2022/10/21 03:37:05;;;;;;;27.30;20.83;;;;;;;;;;5017894;28;20042;-75
2022/10/21 03:39:31;;;;;;;36.13;23.13;;;;;;;;;;5024590;28;20049;-75
2022/10/21 03:41:57;;;;;;;29.90;22.40;;;;;;;;;;5029609;28;20123;-75
2022/10/21 03:44:23;;;;;;;35.08;22.33;;;;;;;;;;5026570;28;20049;-75
2022/10/21 03:46:49;;;;;;;32.75;23.52;;;;;;;;;;5028891;28;20041;-75
2022/10/21 03:49:15;;;;;;;31.25;22.67;;;;;;;;;;5047656;28;20097;-75
2022/10/21 03:51:41;;;;;;;31.67;23.40;;;;;;;;;;5039014;28;20049;-75
2022/10/21 03:54:07;;;;;;;35.53;23.42;;;;;;;;;;5024862;28;20440;-75
2022/10/21 03:56:33;;;;;;;36.15;24.08;;;;;;;;;;5021369;28;20053;-75
2022/10/21 03:58:59;;;;;;;31.02;21.88;;;;;;;;;;5025682;28;20069;-75
2022/10/21 04:01:25;;;;;;;31.77;22.58;;;;;;;;;;5027926;28;20091;-75
2022/10/21 04:03:51;;;;;;;32.10;22.90;;;;;;;;;;5028967;28;20137;-75
2022/10/21 04:06:17;;;;;;;27.73;21.63;;;;;;;;;;5018774;28;20132;-75
2022/10/21 04:08:43;;;;;;;28.13;20.80;;;;;;;;;;5023464;28;20152;-75
2022/10/21 04:11:09;;;;;;;33.50;22.52;;;;;;;;;;5019462;28;20056;-75
2022/10/21 04:13:35;;;;;;;29.30;22.65;;;;;;;;;;5021446;28;20042;-75
2022/10/21 04:16:03;;;;;;;31.38;22.45;;;;;;;;;;5023559;28;20141;-75
2022/10/21 04:18:29;;;;;;;29.05;22.30;;;;;;;;;;5027828;28;20432;-75
2022/10/21 04:20:55;;;;;;;28.10;22.45;;;;;;;;;;5030853;28;20049;-75
2022/10/21 04:23:22;;;;;;;30.90;22.40;;;;;;;;;;5022725;28;20083;-75
2022/10/21 04:25:48;;;;;;;33.92;22.77;;;;;;;;;;5028852;28;20056;-75
2022/10/21 04:28:14;;;;;;;34.33;23.45;;;;;;;;;;5024945;28;20057;-76
2022/10/21 04:30:43;;;;;;;29.73;22.35;;;;;;;;;;5027448;28;20088;-75
2022/10/21 04:33:09;;;;;;;31.88;22.90;;;;;;;;;;5023215;28;20077;-75
2022/10/21 04:35:35;;;;;;;30.27;23.05;;;;;;;;;;5026767;28;20069;-75
2022/10/21 04:38:01;;;;;;;30.63;22.85;;;;;;;;;;5019206;28;20133;-76
2022/10/21 04:40:27;;;;;;;30.05;22.23;;;;;;;;;;5027422;28;20041;-75
2022/10/21 04:42:53;;;;;;;33.17;23.45;;;;;;;;;;5029224;28;20345;-75
2022/10/21 04:45:19;;;;;;;31.13;22.35;;;;;;;;;;5027052;28;20116;-76
2022/10/21 04:47:45;;;;;;;34.75;23.98;;;;;;;;;;5029127;28;20144;-75
2022/10/21 04:50:11;;;;;;;32.72;23.10;;;;;;;;;;5027495;28;20059;-75
2022/10/21 04:52:37;;;;;;;33.47;23.67;;;;;;;;;;5027830;28;20056;-75
2022/10/21 04:55:04;;;;;;;32.35;23.00;;;;;;;;;;5020867;28;20068;-75
2022/10/21 04:57:30;;;;;;;35.08;22.65;;;;;;;;;;5027903;28;20041;-76
2022/10/21 04:59:56;;;;;;;30.75;22.52;;;;;;;;;;5021535;28;20523;-76
2022/10/21 05:02:23;;;;;;;34.72;22.40;;;;;;;;;;5037188;28;20121;-75
2022/10/21 05:04:49;;;;;;;32.17;22.65;;;;;;;;;;5025482;28;20075;-73
2022/10/21 05:07:15;;;;;;;30.40;23.05;;;;;;;;;;5022923;28;20096;-73
2022/10/21 05:09:41;;;;;;;30.80;22.95;;;;;;;;;;5024578;28;20054;-74
2022/10/21 05:12:07;;;;;;;31.20;22.33;;;;;;;;;;5020954;28;20076;-75
2022/10/21 05:14:33;;;;;;;30.17;22.17;;;;;;;;;;5026093;28;21304;-75
2022/10/21 05:17:02;;;;;;;34.22;22.48;;;;;;;;;;5028766;28;20050;-75
2022/10/21 05:19:28;;;;;;;31.63;22.38;;;;;;;;;;5027874;28;20817;-74
2022/10/21 05:21:54;;;;;;;31.40;22.88;;;;;;;;;;5033021;28;20037;-75
2022/10/21 05:24:20;;;;;;;35.97;24.20;;;;;;;;;;5018640;28;20060;-74
2022/10/21 05:26:46;;;;;;;32.50;22.83;;;;;;;;;;5025620;28;20045;-75
2022/10/21 05:29:12;;;;;;;32.78;22.80;;;;;;;;;;5022076;28;20084;-75
2022/10/21 05:31:38;;;;;;;32.33;22.63;;;;;;;;;;5018163;28;20576;-74
2022/10/21 05:34:04;;;;;;;35.50;22.27;;;;;;;;;;5022268;28;20045;-74
2022/10/21 05:36:30;;;;;;;32.90;23.15;;;;;;;;;;5020458;28;20041;-75
2022/10/21 05:38:56;;;;;;;34.75;23.65;;;;;;;;;;5020784;28;20045;-74
2022/10/21 05:41:22;;;;;;;32.25;22.13;;;;;;;;;;5025779;28;20069;-75
2022/10/21 05:43:48;;;;;;;36.72;23.65;;;;;;;;;;5028330;28;20046;-74
2022/10/21 05:46:14;;;;;;;34.10;24.05;;;;;;;;;;5022391;28;20457;-74
2022/10/21 05:48:40;;;;;;;33.53;24.50;;;;;;;;;;5026085;28;20557;-75
2022/10/21 05:51:07;;;;;;;36.28;23.17;;;;;;;;;;5023291;28;20056;-74
2022/10/21 05:53:33;;;;;;;31.35;22.52;;;;;;;;;;5026223;28;20049;-74
2022/10/21 05:56:01;;;;;;;32.20;23.45;;;;;;;;;;5021539;28;20459;-74
2022/10/21 05:58:27;;;;;;;37.38;25.00;;;;;;;;;;5029113;28;20046;-75
2022/10/21 06:00:54;;;;;;;36.03;23.20;;;;;;;;;;5031553;28;20058;-74
2022/10/21 06:03:24;;;;;;;36.30;24.52;;;;;;;;;;5024923;28;20057;-74
2022/10/21 06:05:50;;;;;;;36.42;24.63;;;;;;;;;;5028212;28;20041;-74
2022/10/21 06:08:17;;;;;;;38.53;25.15;;;;;;;;;;5026989;28;20053;-74
2022/10/21 06:10:43;;;;;;;32.85;24.08;;;;;;;;;;5024442;28;20037;-74
2022/10/21 06:13:09;;;;;;;38.08;24.80;;;;;;;;;;5025571;28;20053;-74
2022/10/21 06:15:36;;;;;;;34.22;25.02;;;;;;;;;;5027829;28;20064;-74
2022/10/21 06:18:05;;;;;;;34.90;24.50;;;;;;;;;;5031399;28;20042;-74
2022/10/21 06:20:31;;;;;;;35.78;24.77;;;;;;;;;;5020085;28;20046;-75
2022/10/21 06:23:00;;;;;;;37.58;24.83;;;;;;;;;;5025267;28;20413;-75
2022/10/21 06:25:26;;;;;;;35.30;24.55;;;;;;;;;;5028532;28;20041;-74
2022/10/21 06:27:52;;;;;;;39.28;24.25;;;;;;;;;;5025009;28;20042;-74
2022/10/21 06:30:18;;;;;;;36.33;25.08;;;;;;;;;;5026168;28;20044;-75
2022/10/21 06:32:44;;;;;;;35.50;24.00;;;;;;;;;;5028783;28;20061;-75
2022/10/21 06:35:11;;;;;;;33.85;24.42;;;;;;;;;;5025260;28;20434;-74
2022/10/21 06:37:37;;;;;;;35.03;24.05;;;;;;;;;;5024222;28;20045;-75
2022/10/21 06:40:03;;;;;;;36.95;24.10;;;;;;;;;;5028312;28;20087;-74
2022/10/21 06:42:29;;;;;;;32.78;24.45;;;;;;;;;;5026510;28;20053;-74
2022/10/21 06:44:55;;;;;;;37.45;24.75;;;;;;;;;;5024993;28;20547;-74
2022/10/21 06:47:21;;;;;;;35.88;23.15;;;;;;;;;;5025561;28;20049;-74
2022/10/21 06:49:47;;;;;;;35.67;23.88;;;;;;;;;;5029651;28;20045;-74
2022/10/21 06:52:13;;;;;;;34.22;23.10;;;;;;;;;;5027382;28;20103;-74
2022/10/21 06:54:39;;;;;;;34.53;24.58;;;;;;;;;;5025278;28;20049;-74
2022/10/21 06:57:05;;;;;;;31.65;23.17;;;;;;;;;;5023290;28;20049;-74
2022/10/21 06:59:31;;;;;;;38.58;23.63;;;;;;;;;;5017990;28;20057;-75
2022/10/21 07:01:57;;;;;;;33.28;23.40;;;;;;;;;;5025098;28;20374;-75
2022/10/21 07:04:23;;;;;;;36.35;24.77;;;;;;;;;;5029198;28;20037;-75
2022/10/21 07:06:49;;;;;;;38.42;25.20;;;;;;;;;;5022389;28;20547;-75
2022/10/21 07:09:16;;;;;;;35.28;23.70;;;;;;;;;;5026601;28;20045;-75
2022/10/21 07:11:43;;;;;;;37.13;24.58;;;;;;;;;;5025387;28;20041;-75
2022/10/21 07:14:11;;;;;;;36.38;24.50;;;;;;;;;;5025131;28;20709;-75
2022/10/21 07:16:37;;;;;;;36.72;24.48;;;;;;;;;;5025877;28;20088;-75
2022/10/21 07:19:04;;;;;;;34.05;23.02;;;;;;;;;;5028430;28;20088;-75
2022/10/21 07:21:30;;;;;;;33.13;21.95;;;;;;;;;;5031341;28;20057;-75
2022/10/21 07:23:57;;;;;;;34.35;23.73;;;;;;;;;;5020800;28;20127;-75
2022/10/21 07:26:24;;;;;;;32.75;21.92;;;;;;;;;;5026867;28;20041;-75
2022/10/21 07:28:51;;;;;;;30.80;21.75;;;;;;;;;;5028871;28;20049;-75
2022/10/21 07:31:18;;;;;;;30.65;21.75;;;;;;;;;;5025604;28;20749;-75
2022/10/21 07:33:45;;;;;;;32.05;22.27;;;;;;;;;;5022594;28;20132;-75
2022/10/21 07:36:12;;;;;;;30.00;22.25;;;;;;;;;;5030588;28;20477;-75
2022/10/21 07:38:40;;;;;;;31.38;21.10;;;;;;;;;;5027950;28;20047;-75
2022/10/21 07:41:06;;;;;;;29.40;21.30;;;;;;;;;;5028746;28;20046;-75
2022/10/21 07:43:32;;;;;;;28.80;20.58;;;;;;;;;;5033454;28;20128;-75
2022/10/21 07:45:59;;;;;;;28.00;19.70;;;;;;;;;;5027957;28;20113;-75
2022/10/21 07:48:25;;;;;;;30.23;21.00;;;;;;;;;;5028383;28;20473;-74
2022/10/21 07:50:51;;;;;;;31.92;20.95;;;;;;;;;;5028530;28;20099;-74
2022/10/21 07:53:24;;;;;;;32.30;20.80;;;;;;;;;;5028368;28;20077;-74
2022/10/21 07:56:00;;;;;;;32.63;21.13;;;;;;;;;;5027214;28;20045;-74
2022/10/21 07:58:26;;;;;;;31.80;21.85;;;;;;;;;;5027717;28;20045;-74
2022/10/21 08:00:52;;;;;;;29.25;22.00;;;;;;;;;;5021866;28;20603;-76
2022/10/21 08:03:21;;;;;;;29.48;21.50;;;;;;;;;;5025839;28;20128;-75
2022/10/21 08:05:47;;;;;;;26.70;19.88;;;;;;;;;;5027356;28;20044;-76
2022/10/21 08:08:13;;;;;;;31.88;20.73;;;;;;;;;;5025326;28;20049;-76
2022/10/21 08:10:40;;;;;;;29.95;20.52;;;;;;;;;;5023790;28;20410;-76
2022/10/21 08:13:06;;;;;;;30.45;20.65;;;;;;;;;;5022502;28;20616;-76
2022/10/21 08:15:32;;;;;;;25.27;19.85;;;;;;;;;;5021871;28;20136;-76
2022/10/21 08:17:58;;;;;;;29.60;21.48;;;;;;;;;;5023901;28;20053;-76
2022/10/21 08:20:24;;;;;;;27.23;21.33;;;;;;;;;;5020876;28;20477;-75
2022/10/21 08:22:52;;;;;;;26.48;19.65;;;;;;;;;;5024603;28;20049;-78
2022/10/21 08:25:18;;;;;;;27.63;19.08;;;;;;;;;;5025422;28;20049;-75
2022/10/21 08:27:44;;;;;;;26.15;19.52;;;;;;;;;;5025518;28;20046;-75
2022/10/21 08:30:10;;;;;;;26.48;19.65;;;;;;;;;;5025994;28;20060;-75
2022/10/21 08:32:36;;;;;;;27.23;18.67;;;;;;;;;;5026012;28;20083;-79
2022/10/21 08:35:02;;;;;;;28.45;19.58;;;;;;;;;;5021524;28;20052;-77
2022/10/21 08:37:28;;;;;;;25.80;19.00;;;;;;;;;;5025113;28;20408;-79
2022/10/21 08:39:54;;;;;;;25.73;18.27;;;;;;;;;;5021180;28;20049;-81
2022/10/21 08:42:20;;;;;;;25.38;19.30;;;;;;;;;;5022606;28;20045;-80
2022/10/21 08:44:46;;;;;;;23.20;17.75;;;;;;;;;;5022915;28;20052;-79
2022/10/21 08:47:35;;;;;;;24.02;18.20;;;;;;;;;;5024155;28;20037;-79
2022/10/21 08:50:04;;;;;;;25.35;18.55;;;;;;;;;;5020879;28;20038;-78
2022/10/21 08:52:33;;;;;;;23.48;18.38;;;;;;;;;;5020988;28;20477;-79
2022/10/21 08:55:00;;;;;;;24.23;17.73;;;;;;;;;;5022618;28;21174;-77
2022/10/21 08:57:27;;;;;;;27.00;18.92;;;;;;;;;;5023308;28;20053;-75
2022/10/21 08:59:54;;;;;;;25.65;17.95;;;;;;;;;;5016770;28;20487;-77
2022/10/21 09:02:35;;;;;;;24.00;16.67;;;;;;;;;;5025460;28;20056;-76
2022/10/21 09:05:19;;;;;;;22.80;17.30;;;;;;;;;;5029855;28;20046;-76
2022/10/21 09:07:52;;;;;;;21.02;15.82;;;;;;;;;;5027109;28;20397;-76
2022/10/21 09:10:25;;;;;;;21.60;16.98;;;;;;;;;;5020310;28;20076;-76
2022/10/21 09:12:51;;;;;;;;;;;;;;;;;;5026222;28;20049;-76
2022/10/21 09:15:22;;;;;;;21.88;16.33;;;;;;;;;;5020232;28;19925;-76
2022/10/21 09:17:48;;;;;;;24.42;17.08;;;;;;;;;;5023612;28;20504;-76
2022/10/21 09:20:19;;;;;;;20.70;15.80;;;;;;;;;;5024599;28;20042;-76
2022/10/21 09:22:45;;;;;;;22.10;17.00;;;;;;;;;;5024369;28;20046;-76
2022/10/21 09:25:20;;;;;;;22.55;15.20;;;;;;;;;;5020784;28;20126;-76
2022/10/21 09:27:46;;;;;;;19.92;15.68;;;;;;;;;;5026522;28;20049;-76
2022/10/21 09:30:17;;;;;;;20.10;15.68;;;;;;;;;;5023330;28;20100;-77
2022/10/21 09:32:48;;;;;;;18.73;14.38;;;;;;;;;;5025670;28;20049;-77
2022/10/21 09:35:28;;;;;;;17.90;14.73;;;;;;;;;;5021003;28;20052;-76
2022/10/21 09:37:57;;;;;;;17.67;14.98;;;;;;;;;;5023810;28;20053;-76
2022/10/21 09:40:24;;;;;;;19.50;14.73;;;;;;;;;;5026210;28;20446;-76
2022/10/21 09:42:51;;;;;;;19.13;14.65;;;;;;;;;;5023947;28;20100;-76
2022/10/21 09:45:23;;;;;;;18.50;14.32;;;;;;;;;;5026534;28;20071;-76
2022/10/21 09:47:53;;;;;;;15.90;13.77;;;;;;;;;;5022850;28;20037;-76
2022/10/21 09:50:19;;;;;;;18.17;14.40;;;;;;;;;;5026873;28;20160;-76
2022/10/21 09:52:51;;;;;;;16.67;13.80;;;;;;;;;;5027551;28;20041;-76
2022/10/21 09:55:20;;;;;;;18.50;13.32;;;;;;;;;;5026645;28;20037;-77
2022/10/21 09:57:55;;;;;;;15.88;13.32;;;;;;;;;;5028142;28;20041;-77
2022/10/21 10:00:22;;;;;;;17.27;13.88;;;;;;;;;;5022400;28;20133;-76
2022/10/21 10:02:48;;;;;;;17.35;13.93;;;;;;;;;;5024910;28;20102;-77
2022/10/21 10:05:34;;;;;;;17.70;13.13;;;;;;;;;;5017984;28;20421;-76
2022/10/21 10:08:00;;;;;;;18.35;12.73;;;;;;;;;;5024843;28;20477;-76
2022/10/21 10:10:32;;;;;;;18.48;12.52;;;;;;;;;;5021590;28;20045;-76
2022/10/21 10:12:58;;;;;;;16.33;12.88;;;;;;;;;;5024094;28;20041;-76
2022/10/21 10:15:31;;;;;;;18.13;12.38;;;;;;;;;;5025086;28;20068;-77
2022/10/21 10:18:00;;;;;;;17.15;12.23;;;;;;;;;;5028733;28;20144;-77
2022/10/21 10:20:26;;;;;;;16.77;12.00;;;;;;;;;;5028908;28;20172;-75
2022/10/21 10:23:01;;;;;;;13.88;11.60;;;;;;;;;;5024327;28;20081;-77
2022/10/21 10:25:30;;;;;;;14.20;11.65;;;;;;;;;;5021111;28;20436;-76
2022/10/21 10:28:00;;;;;;;12.88;10.75;;;;;;;;;;5026372;28;20107;-76
2022/10/21 10:30:35;;;;;;;13.00;11.27;;;;;;;;;;5018258;28;20111;-76
2022/10/21 10:33:06;;;;;;;15.00;11.38;;;;;;;;;;5024356;28;20037;-76
2022/10/21 10:35:34;;;;;;;14.50;11.05;;;;;;;;;;5022088;28;20045;-77
2022/10/21 10:38:01;;;;;;;12.68;10.63;;;;;;;;;;5024893;28;20457;-75
2022/10/21 10:40:38;;;;;;;12.75;10.80;;;;;;;;;;5028237;28;20049;-75
2022/10/21 10:43:23;;;;;;;17.17;11.00;;;;;;;;;;5020929;28;20055;-75
2022/10/21 10:46:14;;;;;;;14.45;11.57;;;;;;;;;;5030174;28;20038;-75
2022/10/21 10:48:46;;;;;;;14.30;10.85;;;;;;;;;;5022160;28;20045;-76
2022/10/21 10:51:31;;;;;;;13.73;10.40;;;;;;;;;;5030222;28;20163;-75
2022/10/21 10:54:02;;;;;;;13.57;10.85;;;;;;;;;;5028389;28;20052;-75
2022/10/21 10:56:30;;;;;;;11.80;10.02;;;;;;;;;;5028641;28;20218;-75
2022/10/21 10:59:08;;;;;;;15.98;10.18;;;;;;;;;;5028947;28;20158;-76
2022/10/21 11:01:41;;;;;;;11.50;9.18;;;;;;;;;;5025371;28;20050;-77
2022/10/21 11:04:14;;;;;;;16.00;10.63;;;;;;;;;;5029687;28;20120;-80
2022/10/21 11:06:44;;;;;;;11.70;10.13;;;;;;;;;;5026228;28;20046;-77
2022/10/21 11:09:10;;;;;;;12.98;9.45;;;;;;;;;;5030707;28;20045;-82
2022/10/21 11:11:38;;;;;;;13.55;9.80;;;;;;;;;;5026516;28;20472;-76
2022/10/21 11:14:09;;;;;;;13.15;9.45;;;;;;;;;;5028950;28;20045;-77
2022/10/21 11:16:42;;;;;;;11.68;9.27;;;;;;;;;;5023910;28;20045;-79
2022/10/21 11:19:08;;;;;;;10.20;8.95;;;;;;;;;;5024760;28;20052;-77
2022/10/21 11:21:37;;;;;;;17.00;9.02;;;;;;;;;;5025723;28;20125;-77
2022/10/21 11:24:22;;;;;;;11.15;9.25;;;;;;;;;;5028289;28;20045;-75
2022/10/21 11:26:48;;;;;;;14.10;9.32;;;;;;;;;;5024120;28;20049;-76
2022/10/21 11:29:23;;;;;;;11.73;9.13;;;;;;;;;;5027393;28;20038;-79
2022/10/21 11:32:02;;;;;;;12.82;9.20;;;;;;;;;;5025573;28;20084;-77
2022/10/21 11:34:34;;;;;;;12.15;9.27;;;;;;;;;;5030654;28;20093;-77
2022/10/21 11:37:19;;;;;;;14.07;9.35;;;;;;;;;;5019129;28;20398;-79
2022/10/21 11:39:51;;;;;;;14.20;8.57;;;;;;;;;;5018102;28;20077;-78
2022/10/21 11:42:30;;;;;;;10.32;8.10;;;;;;;;;;5032124;28;20389;-78
2022/10/21 11:44:56;;;;;;;12.15;8.48;;;;;;;;;;5028427;28;20132;-79
2022/10/21 11:47:25;;;;;;;10.07;8.10;;;;;;;;;;5026579;28;20128;-77
2022/10/21 11:49:51;;;;;;;11.77;7.88;;;;;;;;;;5019489;28;20049;-78
2022/10/21 11:52:29;;;;;;;10.35;7.95;;;;;;;;;;5024429;28;20056;-76
2022/10/21 11:55:02;;;;;;;9.88;8.20;;;;;;;;;;5031178;28;20045;-77
2022/10/21 11:57:49;;;;;;;9.80;8.55;;;;;;;;;;5029551;28;20417;-76
2022/10/21 12:00:15;;;;;;;14.20;8.00;;;;;;;;;;5029546;28;20058;-77
2022/10/21 12:02:45;;;;;;;12.48;8.80;;;;;;;;;;5025389;28;20080;-77
2022/10/21 12:05:31;;;;;;;11.70;8.55;;;;;;;;;;5030935;28;20404;-77
2022/10/21 12:08:16;;;;;;;10.90;8.10;;;;;;;;;;5028590;28;20038;-77
2022/10/21 12:10:54;;;;;;;10.25;8.02;;;;;;;;;;5029159;28;20402;-77
2022/10/21 12:13:29;;;;;;;11.00;7.85;;;;;;;;;;5028976;28;20073;-77
2022/10/21 12:15:57;;;;;;;12.73;8.00;;;;;;;;;;5030002;28;20045;-77
2022/10/21 12:18:25;;;;;;;10.55;7.97;;;;;;;;;;5026003;28;20405;-77
2022/10/21 12:20:53;;;;;;;10.98;8.18;;;;;;;;;;5029428;28;20174;-77
2022/10/21 12:23:21;;;;;;;11.70;8.07;;;;;;;;;;5027353;28;20099;-76
2022/10/21 12:25:47;;;;;;;13.43;8.50;;;;;;;;;;5031518;28;20073;-77
2022/10/21 12:28:13;;;;;;;10.63;8.00;;;;;;;;;;5026050;28;20099;-77
2022/10/21 12:30:42;;;;;;;14.38;7.43;;;;;;;;;;5025839;28;20100;-77
2022/10/21 12:33:08;;;;;;;11.15;8.07;;;;;;;;;;5026858;28;20468;-77
2022/10/21 12:35:43;;;;;;;10.18;7.57;;;;;;;;;;5031898;28;20041;-77
2022/10/21 12:38:20;;;;;;;11.27;8.10;;;;;;;;;;5025970;28;20405;-77
2022/10/21 12:40:47;;;;;;;12.48;7.20;;;;;;;;;;5026305;28;20556;-79
2022/10/21 12:43:27;;;;;;;12.45;8.25;;;;;;;;;;5026638;28;20048;-78
2022/10/21 12:46:04;;;;;;;11.57;7.88;;;;;;;;;;5030353;28;20037;-78
2022/10/21 12:48:42;;;;;;;12.88;7.57;;;;;;;;;;5028566;28;20056;-78
2022/10/21 12:51:18;;;;;;;11.20;6.95;;;;;;;;;;5036066;28;20481;-79
2022/10/21 12:53:48;;;;;;;11.32;7.43;;;;;;;;;;5032828;28;20045;-79
2022/10/21 12:56:25;;;;;;;10.57;7.47;;;;;;;;;;5030382;28;20082;-79
2022/10/21 12:58:55;;;;;;;11.35;7.57;;;;;;;;;;5028029;28;20071;-79
2022/10/21 13:01:41;;;;;;;12.77;7.30;;;;;;;;;;5019306;28;20057;-79
2022/10/21 13:04:30;;;;;;;9.38;7.28;;;;;;;;;;5024934;28;20041;-78
2022/10/21 13:06:56;;;;;;;11.10;6.88;;;;;;;;;;5031050;28;20442;-78
2022/10/21 13:09:40;;;;;;;10.52;6.88;;;;;;;;;;5028646;28;20084;-78
2022/10/21 13:12:09;;;;;;;10.55;6.97;;;;;;;;;;5025847;28;20115;-78
2022/10/21 13:14:48;;;;;;;10.98;7.10;;;;;;;;;;5026448;28;20053;-77
2022/10/21 13:17:20;;;;;;;8.82;6.57;;;;;;;;;;5024149;28;20053;-78
2022/10/21 13:19:53;;;;;;;10.13;6.75;;;;;;;;;;5020829;28;20061;-78
2022/10/21 13:22:33;;;;;;;11.45;7.35;;;;;;;;;;5027054;28;20044;-79
2022/10/21 13:25:16;;;;;;;9.50;6.43;;;;;;;;;;5024074;28;20053;-78
2022/10/21 13:27:48;;;;;;;8.50;6.70;;;;;;;;;;5013796;28;20414;-78
2022/10/21 13:30:28;;;;;;;7.82;6.50;;;;;;;;;;5023223;28;21883;-78
2022/10/21 13:33:05;;;;;;;12.32;7.25;;;;;;;;;;5021982;28;20068;-79
2022/10/21 13:35:57;;;;;;;10.63;6.70;;;;;;;;;;5026803;28;20505;-79
2022/10/21 13:38:25;;;;;;;9.85;6.90;;;;;;;;;;4994450;28;20428;-78
2022/10/21 13:40:55;;;;;;;8.10;6.53;;;;;;;;;;5028219;28;20041;-78
2022/10/21 13:43:27;;;;;;;8.68;6.78;;;;;;;;;;5021330;28;20184;-78
2022/10/21 13:45:57;;;;;;;8.82;6.90;;;;;;;;;;5025822;28;20077;-78
2022/10/21 13:48:24;;;;;;;11.63;7.28;;;;;;;;;;5023655;28;20563;-77
2022/10/21 13:50:52;;;;;;;9.95;7.00;;;;;;;;;;5026496;28;20045;-77
2022/10/21 13:53:18;;;;;;;9.10;7.03;;;;;;;;;;5023325;28;20941;-77
2022/10/21 13:56:13;;;;;;;13.45;7.63;;;;;;;;;;5028220;28;20045;-77
2022/10/21 13:58:39;;;;;;;10.65;7.40;;;;;;;;;;5011276;28;20053;-77
2022/10/21 14:01:13;;;;;;;10.23;8.65;;;;;;;;;;5023586;28;20076;-77
2022/10/21 14:03:40;;;;;;;10.23;7.75;;;;;;;;;;5028550;28;20492;-77
2022/10/21 14:06:08;;;;;;;9.13;7.55;;;;;;;;;;5024083;28;20131;-77
2022/10/21 14:08:38;;;;;;;9.15;7.15;;;;;;;;;;5029749;28;20615;-77
2022/10/21 14:11:21;;;;;;;9.05;7.30;;;;;;;;;;5029567;28;20049;-78
2022/10/21 14:13:47;;;;;;;8.55;7.28;;;;;;;;;;5023511;28;20041;-77
2022/10/21 14:16:21;;;;;;;11.98;7.38;;;;;;;;;;5024561;28;20049;-77
2022/10/21 14:18:48;;;;;;;9.95;7.30;;;;;;;;;;5015021;28;21927;-78
2022/10/21 14:21:20;;;;;;;10.32;7.07;;;;;;;;;;5023956;28;20052;-77
2022/10/21 14:23:46;;;;;;;12.07;7.72;;;;;;;;;;5028608;28;20045;-78
2022/10/21 14:26:13;;;;;;;9.50;7.25;;;;;;;;;;5026967;28;20041;-77
2022/10/21 14:28:39;;;;;;;11.23;7.47;;;;;;;;;;5023005;28;20041;-78
2022/10/21 14:31:06;;;;;;;11.35;8.18;;;;;;;;;;5025774;28;20045;-76
2022/10/21 14:33:33;;;;;;;10.70;8.02;;;;;;;;;;5026870;28;20049;-76